createdAt,value
2022-09-01T00:00:49.112Z,1.80
2022-09-01T00:03:18.654Z,2.40
2022-09-01T00:05:51.186Z,2.33
2022-09-01T00:08:19.576Z,1.92
2022-09-01T00:10:49.936Z,2.00
2022-09-01T00:13:19.027Z,2.40
2022-09-01T00:15:47.545Z,1.70
2022-09-01T00:18:16.098Z,2.42
2022-09-01T00:20:44.645Z,2.40
2022-09-01T00:23:13.318Z,2.70
2022-09-01T00:25:41.720Z,2.15
2022-09-01T00:28:11.724Z,1.98
2022-09-01T00:30:41.150Z,2.22
2022-09-01T00:33:09.675Z,2.30
2022-09-01T00:35:38.210Z,2.30
2022-09-01T00:38:06.675Z,2.40
2022-09-01T00:40:35.663Z,2.38
2022-09-01T00:43:15.050Z,2.17
2022-09-01T00:45:43.535Z,2.10
2022-09-01T00:48:12.024Z,1.92
2022-09-01T00:50:41.444Z,1.88
2022-09-01T00:53:11.118Z,2.00
2022-09-01T00:55:39.978Z,2.40
2022-09-01T00:58:19.542Z,1.98
2022-09-01T01:00:52.212Z,1.92
2022-09-01T01:03:20.868Z,2.22
2022-09-01T01:05:54.370Z,2.42
2022-09-01T01:08:31.687Z,2.15
2022-09-01T01:10:59.945Z,1.95
2022-09-01T01:13:29.037Z,1.83
2022-09-01T01:15:59.710Z,1.73
2022-09-01T01:18:28.189Z,2.40
2022-09-01T01:21:21.448Z,2.03
2022-09-01T01:23:57.751Z,2.58
2022-09-01T01:26:28.664Z,1.98
2022-09-01T01:28:56.955Z,2.08
2022-09-01T01:31:25.732Z,1.92
2022-09-01T01:33:56.896Z,2.00
2022-09-01T01:36:32.274Z,1.90
2022-09-01T01:39:03.169Z,2.08
2022-09-01T01:41:35.022Z,1.70
2022-09-01T01:44:05.457Z,2.22
2022-09-01T01:46:34.534Z,1.83
2022-09-01T01:49:03.449Z,1.70
2022-09-01T01:51:33.069Z,2.28
2022-09-01T01:54:07.444Z,2.30
2022-09-01T01:56:41.794Z,1.80
2022-09-01T01:59:15.673Z,1.80
2022-09-01T02:01:51.519Z,2.08
2022-09-01T02:04:21.056Z,2.10
2022-09-01T02:06:52.205Z,2.30
2022-09-01T02:09:23.391Z,2.03
2022-09-01T02:11:57.350Z,1.83
2022-09-01T02:14:25.896Z,2.35
2022-09-01T02:16:56.295Z,1.92
2022-09-01T02:19:24.807Z,1.65
2022-09-01T02:21:56.626Z,1.83
2022-09-01T02:24:26.561Z,1.65
2022-09-01T02:26:58.371Z,1.85
2022-09-01T02:29:28.930Z,2.10
2022-09-01T02:31:58.150Z,1.67
2022-09-01T02:34:29.023Z,1.60
2022-09-01T02:36:58.398Z,2.30
2022-09-01T02:39:29.423Z,2.22
2022-09-01T02:42:01.426Z,1.92
2022-09-01T02:44:31.296Z,1.80
2022-09-01T02:47:01.957Z,1.80
2022-09-01T02:49:30.446Z,2.17
2022-09-01T02:52:01.877Z,2.15
2022-09-01T02:54:32.722Z,1.63
2022-09-01T02:57:04.116Z,2.03
2022-09-01T02:59:34.828Z,1.85
2022-09-01T03:02:03.271Z,2.55
2022-09-01T03:04:35.317Z,2.00
2022-09-01T03:07:04.784Z,2.05
2022-09-01T03:09:35.666Z,2.35
2022-09-01T03:12:07.397Z,2.53
2022-09-01T03:14:36.290Z,2.72
2022-09-01T03:17:04.725Z,1.80
2022-09-01T03:19:40.284Z,1.67
2022-09-01T03:22:08.690Z,1.83
2022-09-01T03:24:37.333Z,2.00
2022-09-01T03:27:07.558Z,2.15
2022-09-01T03:29:37.002Z,2.30
2022-09-01T03:32:05.859Z,2.38
2022-09-01T03:34:36.973Z,2.38
2022-09-01T03:37:07.953Z,1.90
2022-09-01T03:39:36.799Z,2.20
2022-09-01T03:42:08.901Z,2.33
2022-09-01T03:44:40.497Z,1.75
2022-09-01T03:47:15.419Z,2.38
2022-09-01T03:49:45.621Z,2.15
2022-09-01T03:52:14.865Z,2.33
2022-09-01T03:54:43.948Z,2.05
2022-09-01T03:57:13.922Z,1.70
2022-09-01T03:59:45.376Z,1.75
2022-09-01T04:02:15.233Z,2.00
2022-09-01T04:04:43.885Z,2.15
2022-09-01T04:07:15.500Z,1.70
2022-09-01T04:09:47.626Z,1.65
2022-09-01T04:12:17.518Z,2.45
2022-09-01T04:14:48.166Z,1.65
2022-09-01T04:17:33.653Z,1.63
2022-09-01T04:20:09.031Z,1.95
2022-09-01T04:22:38.431Z,2.42
2022-09-01T04:25:09.063Z,1.88
2022-09-01T04:27:40.508Z,1.50
2022-09-01T04:30:11.655Z,2.03
2022-09-01T04:32:40.401Z,1.92
2022-09-01T04:35:11.718Z,1.95
2022-09-01T04:37:40.057Z,2.20
2022-09-01T04:40:10.105Z,1.77
2022-09-01T04:42:40.020Z,1.92
2022-09-01T04:45:11.411Z,2.08
2022-09-01T04:47:42.301Z,1.65
2022-09-01T04:50:14.865Z,1.70
2022-09-01T04:52:43.712Z,2.15
2022-09-01T04:55:17.806Z,1.60
2022-09-01T04:57:49.712Z,2.10
2022-09-01T05:00:23.722Z,1.90
2022-09-01T05:02:54.170Z,2.00
2022-09-01T05:05:23.692Z,1.75
2022-09-01T05:07:55.708Z,2.13
2022-09-01T05:10:30.161Z,2.35
2022-09-01T05:13:00.388Z,2.13
2022-09-01T05:15:31.049Z,1.88
2022-09-01T05:18:00.009Z,1.75
2022-09-01T05:20:30.360Z,2.00
2022-09-01T05:22:58.699Z,2.10
2022-09-01T05:25:27.612Z,1.98
2022-09-01T05:27:56.908Z,1.70
2022-09-01T05:30:28.811Z,1.55
2022-09-01T05:32:57.230Z,1.40
2022-09-01T05:35:32.470Z,1.58
2022-09-01T05:38:01.180Z,1.55
2022-09-01T05:40:29.722Z,1.73
2022-09-01T05:42:59.286Z,2.00
2022-09-01T05:45:50.388Z,2.03
2022-09-01T05:48:23.863Z,1.30
2022-09-01T05:50:57.619Z,1.80
2022-09-01T05:53:26.932Z,1.67
2022-09-01T05:55:57.775Z,1.90
2022-09-01T05:59:22.562Z,1.77
2022-09-01T06:01:22.399Z,1.55
2022-09-01T06:03:54.912Z,1.85
2022-09-01T06:06:23.435Z,1.45
2022-09-01T06:08:51.833Z,1.80
2022-09-01T06:11:22.292Z,1.60
2022-09-01T06:13:55.353Z,2.25
2022-09-01T06:16:26.195Z,2.28
2022-09-01T06:18:55.363Z,1.60
2022-09-01T06:21:24.846Z,1.35
2022-09-01T06:23:54.906Z,1.63
2022-09-01T06:26:27.341Z,1.63
2022-09-01T06:28:56.551Z,1.90
2022-09-01T06:31:30.307Z,1.23
2022-09-01T06:34:00.097Z,1.63
2022-09-01T06:36:35.039Z,1.63
2022-09-01T06:39:03.807Z,1.60
2022-09-01T06:41:32.809Z,1.55
2022-09-01T06:44:01.577Z,1.83
2022-09-01T06:46:32.089Z,1.83
2022-09-01T06:49:00.563Z,1.92
2022-09-01T06:51:29.896Z,2.28
2022-09-01T06:53:59.703Z,1.30
2022-09-01T06:56:32.010Z,1.77
2022-09-01T06:59:06.177Z,1.80
2022-09-01T07:01:36.306Z,1.67
2022-09-01T07:04:12.453Z,1.58
2022-09-01T07:09:47.006Z,1.45
2022-09-01T07:12:27.961Z,2.13
2022-09-01T07:17:50.199Z,1.58
2022-09-01T07:20:24.802Z,1.73
2022-09-01T07:23:10.457Z,1.50
2022-09-01T07:26:01.104Z,2.50
2022-09-01T07:28:36.591Z,1.98
2022-09-01T07:39:51.783Z,1.10
2022-09-01T07:45:27.712Z,2.15
2022-09-01T07:47:57.357Z,1.50
2022-09-01T07:53:18.507Z,1.30
2022-09-01T07:55:50.048Z,1.40
2022-09-01T07:58:20.273Z,1.50
2022-09-01T08:00:49.925Z,1.75
2022-09-01T08:03:20.142Z,1.17
2022-09-01T08:05:53.871Z,1.40
2022-09-01T08:08:26.360Z,2.08
2022-09-01T08:11:06.590Z,1.25
2022-09-01T08:13:40.717Z,1.48
2022-09-01T08:16:18.965Z,1.38
2022-09-01T08:18:51.112Z,2.00
2022-09-01T08:21:23.606Z,1.30
2022-09-01T08:23:53.323Z,1.30
2022-09-01T08:26:24.062Z,1.52
2022-09-01T08:28:56.236Z,1.30
2022-09-01T08:31:30.567Z,1.38
2022-09-01T08:34:00.261Z,0.90
2022-09-01T08:36:30.173Z,1.35
2022-09-01T08:38:58.571Z,1.42
2022-09-01T08:41:59.240Z,1.35
2022-09-01T08:44:49.089Z,1.08
2022-09-01T08:47:35.531Z,1.30
2022-09-01T08:50:09.226Z,1.40
2022-09-01T08:52:52.984Z,1.20
2022-09-01T08:55:27.549Z,1.42
2022-09-01T08:57:59.755Z,1.40
2022-09-01T09:00:33.405Z,1.40
2022-09-01T09:03:17.279Z,1.27
2022-09-01T09:05:58.788Z,0.90
2022-09-01T09:08:53.080Z,1.27
2022-09-01T09:11:30.183Z,1.33
2022-09-01T09:14:06.412Z,0.77
2022-09-01T09:16:40.371Z,1.20
2022-09-01T09:19:12.368Z,1.35
2022-09-01T09:21:42.409Z,1.55
2022-09-01T09:24:22.573Z,1.33
2022-09-01T09:27:20.647Z,1.10
2022-09-01T09:29:51.091Z,1.10
2022-09-01T09:32:35.195Z,1.50
2022-09-01T09:35:23.272Z,1.20
2022-09-01T09:37:51.854Z,1.10
2022-09-01T09:40:25.387Z,0.93
2022-09-01T09:43:08.287Z,1.23
2022-09-01T09:45:42.073Z,1.10
2022-09-01T09:48:28.906Z,1.45
2022-09-01T09:50:57.527Z,1.52
2022-09-01T09:53:29.962Z,1.13
2022-09-01T09:56:15.262Z,1.48
2022-09-01T09:58:46.716Z,1.30
2022-09-01T10:01:38.918Z,1.40
2022-09-01T10:04:08.207Z,1.35
2022-09-01T10:06:39.575Z,1.13
2022-09-01T10:09:10.901Z,1.52
2022-09-01T10:11:42.974Z,1.17
2022-09-01T10:14:35.494Z,1.13
2022-09-01T10:17:11.015Z,1.30
2022-09-01T10:19:42.434Z,1.02
2022-09-01T10:22:14.972Z,1.20
2022-09-01T10:24:45.854Z,1.25
2022-09-01T10:27:21.890Z,1.10
2022-09-01T10:32:52.511Z,1.50
2022-09-01T10:35:25.771Z,1.02
2022-09-01T10:37:58.057Z,1.17
2022-09-01T10:40:49.820Z,1.02
2022-09-01T10:43:38.434Z,1.13
2022-09-01T10:46:49.440Z,1.10
2022-09-01T10:50:07.420Z,1.10
2022-09-01T10:53:08.366Z,1.10
2022-09-01T10:55:42.528Z,1.15
2022-09-01T11:02:22.292Z,1.15
2022-09-01T11:05:15.178Z,1.13
2022-09-01T11:08:09.092Z,1.30
2022-09-01T11:10:56.041Z,0.98
2022-09-01T11:17:15.468Z,1.00
2022-09-01T11:19:47.026Z,1.00
2022-09-01T11:22:38.456Z,1.25
2022-09-01T11:25:40.457Z,1.08
2022-09-01T11:28:44.638Z,1.63
2022-09-01T11:31:33.021Z,1.08
2022-09-01T11:34:14.558Z,1.25
2022-09-01T11:37:03.513Z,1.27
2022-09-01T11:40:23.421Z,1.30
2022-09-01T11:42:53.889Z,1.48
2022-09-01T11:45:28.398Z,1.45
2022-09-01T11:48:00.250Z,1.60
2022-09-01T11:50:32.238Z,1.35
2022-09-01T11:53:05.468Z,1.30
2022-09-01T11:55:36.366Z,1.42
2022-09-01T11:58:06.042Z,1.08
2022-09-01T12:00:38.577Z,1.60
2022-09-01T12:03:20.718Z,1.15
2022-09-01T12:05:54.711Z,1.08
2022-09-01T12:08:24.204Z,1.25
2022-09-01T12:10:55.013Z,1.10
2022-09-01T12:13:25.177Z,1.10
2022-09-01T12:16:17.371Z,0.90
2022-09-01T12:18:48.761Z,1.20
2022-09-01T12:21:23.162Z,1.08
2022-09-01T12:23:51.810Z,1.30
2022-09-01T12:26:24.589Z,1.23
2022-09-01T12:28:55.059Z,1.00
2022-09-01T12:31:27.688Z,1.15
2022-09-01T12:33:57.939Z,1.20
2022-09-01T12:36:29.064Z,1.00
2022-09-01T12:38:59.044Z,0.82
2022-09-01T12:41:35.183Z,1.25
2022-09-01T12:44:30.789Z,1.50
2022-09-01T12:47:03.623Z,1.25
2022-09-01T12:49:50.171Z,0.90
2022-09-01T12:52:26.684Z,1.10
2022-09-01T12:55:09.116Z,1.48
2022-09-01T12:57:41.275Z,1.40
2022-09-01T13:00:18.244Z,1.50
2022-09-01T13:02:50.842Z,1.30
2022-09-01T13:05:29.940Z,1.33
2022-09-01T13:08:01.998Z,0.90
2022-09-01T13:10:35.464Z,1.10
2022-09-01T13:13:03.750Z,1.00
2022-09-01T13:15:32.488Z,1.13
2022-09-01T13:18:02.596Z,0.80
2022-09-01T13:20:32.118Z,1.35
2022-09-01T13:23:00.620Z,1.15
2022-09-01T13:25:28.896Z,0.93
2022-09-01T13:27:57.359Z,1.00
2022-09-01T13:30:28.591Z,1.23
2022-09-01T13:35:47.141Z,1.30
2022-09-01T13:38:16.903Z,1.77
2022-09-01T13:40:47.363Z,2.00
2022-09-01T13:43:16.657Z,1.67
2022-09-01T13:45:45.397Z,1.25
2022-09-01T13:48:15.576Z,1.48
2022-09-01T13:53:35.409Z,1.20
2022-09-01T13:56:04.152Z,0.88
2022-09-01T13:58:32.584Z,0.90
2022-09-01T14:01:01.051Z,1.25
2022-09-01T14:03:32.305Z,1.20
2022-09-01T14:06:02.356Z,0.93
2022-09-01T14:08:31.460Z,1.30
2022-09-01T14:11:00.136Z,1.00
2022-09-01T14:13:31.329Z,1.08
2022-09-01T14:16:01.950Z,1.38
2022-09-01T14:18:33.039Z,1.05
2022-09-01T14:21:02.970Z,1.17
2022-09-01T14:23:31.373Z,1.25
2022-09-01T14:26:00.141Z,0.93
2022-09-01T14:28:28.539Z,0.90
2022-09-01T14:33:27.464Z,1.33
2022-09-01T14:35:55.830Z,1.20
2022-09-01T14:38:25.557Z,1.20
2022-09-01T14:40:54.037Z,1.55
2022-09-01T14:43:23.023Z,0.98
2022-09-01T14:45:56.437Z,0.80
2022-09-01T14:48:24.777Z,1.00
2022-09-01T14:50:54.267Z,1.00
2022-09-01T14:53:23.026Z,1.00
2022-09-01T14:55:56.298Z,1.13
2022-09-01T14:58:26.722Z,1.02
2022-09-01T15:01:03.602Z,1.08
2022-09-01T15:03:35.902Z,0.90
2022-09-01T15:06:04.455Z,1.10
2022-09-01T15:08:33.790Z,0.73
2022-09-01T15:11:04.069Z,1.13
2022-09-01T15:13:32.491Z,1.00
2022-09-01T15:16:01.554Z,1.40
2022-09-01T15:18:30.013Z,1.40
2022-09-01T15:20:58.433Z,1.00
2022-09-01T15:23:27.882Z,0.95
2022-09-01T15:25:57.929Z,0.82
2022-09-01T15:28:28.218Z,1.13
2022-09-01T15:30:57.149Z,1.20
2022-09-01T15:33:25.433Z,1.00
2022-09-01T15:35:54.080Z,1.33
2022-09-01T15:38:28.413Z,1.08
2022-09-01T15:40:58.908Z,1.00
2022-09-01T15:43:30.339Z,1.13
2022-09-01T15:45:59.813Z,0.98
2022-09-01T15:48:29.367Z,1.10
2022-09-01T15:51:29.556Z,0.95
2022-09-01T15:54:01.249Z,0.90
2022-09-01T15:56:31.423Z,0.55
2022-09-01T15:59:02.561Z,1.00
2022-09-01T16:01:33.261Z,0.98
2022-09-01T16:04:02.711Z,1.10
2022-09-01T16:06:31.940Z,1.00
2022-09-01T16:09:00.427Z,1.17
2022-09-01T16:11:28.810Z,1.15
2022-09-01T16:13:58.304Z,1.00
2022-09-01T16:16:41.268Z,1.15
2022-09-01T16:19:23.422Z,1.05
2022-09-01T16:21:59.951Z,1.13
2022-09-01T16:24:28.563Z,1.20
2022-09-01T16:26:58.286Z,1.02
2022-09-01T16:29:35.877Z,0.77
2022-09-01T16:32:06.374Z,1.45
2022-09-01T16:34:35.148Z,1.10
2022-09-01T16:37:09.518Z,1.08
2022-09-01T16:39:45.978Z,1.30
2022-09-01T16:42:28.876Z,2.17
2022-09-01T16:48:00.514Z,1.65
2022-09-01T16:50:40.884Z,1.30
2022-09-01T16:53:43.575Z,1.40
2022-09-01T16:56:31.285Z,1.25
2022-09-01T16:59:22.975Z,1.60
2022-09-01T17:02:03.756Z,1.60
2022-09-01T17:04:41.891Z,1.63
2022-09-01T17:07:16.193Z,1.50
2022-09-01T17:09:46.562Z,1.45
2022-09-01T17:12:27.804Z,2.22
2022-09-01T17:14:59.714Z,1.42
2022-09-01T17:17:39.317Z,1.40
2022-09-01T17:20:09.978Z,1.35
2022-09-01T17:22:39.984Z,1.50
2022-09-01T17:25:12.805Z,1.17
2022-09-01T17:27:53.203Z,1.80
2022-09-01T17:30:22.331Z,1.27
2022-09-01T17:33:05.953Z,1.50
2022-09-01T17:36:10.825Z,1.60
2022-09-01T17:38:54.174Z,1.58
2022-09-01T17:41:34.752Z,1.40
2022-09-01T17:44:12.599Z,1.55
2022-09-01T17:46:47.130Z,1.80
2022-09-01T17:49:22.699Z,1.42
2022-09-01T17:52:02.416Z,1.95
2022-09-01T17:54:41.937Z,1.42
2022-09-01T17:57:18.211Z,1.90
2022-09-01T17:59:53.448Z,2.00
2022-09-01T18:02:52.447Z,1.50
2022-09-01T18:05:24.473Z,1.98
2022-09-01T18:08:22.796Z,1.50
2022-09-01T18:10:58.237Z,1.70
2022-09-01T18:13:52.429Z,1.85
2022-09-01T18:16:24.727Z,1.75
2022-09-01T18:18:54.310Z,1.55
2022-09-01T18:21:26.293Z,1.15
2022-09-01T18:23:59.924Z,1.48
2022-09-01T18:26:32.475Z,1.60
2022-09-01T18:29:02.458Z,1.75
2022-09-01T18:32:01.917Z,1.92
2022-09-01T18:34:47.065Z,2.17
2022-09-01T18:37:23.532Z,1.33
2022-09-01T18:40:03.456Z,1.60
2022-09-01T18:42:40.589Z,1.63
2022-09-01T18:45:16.622Z,1.38
2022-09-01T18:47:51.090Z,1.30
2022-09-01T18:50:25.145Z,2.35
2022-09-01T18:53:07.796Z,1.80
2022-09-01T18:55:48.210Z,1.30
2022-09-01T18:58:29.780Z,1.70
2022-09-01T19:01:04.559Z,1.30
2022-09-01T19:03:38.942Z,1.33
2022-09-01T19:06:23.536Z,2.05
2022-09-01T19:09:02.280Z,1.40
2022-09-01T19:11:44.093Z,1.42
2022-09-01T19:14:20.689Z,1.10
2022-09-01T19:17:11.395Z,1.42
2022-09-01T19:19:44.305Z,1.95
2022-09-01T19:22:18.749Z,1.00
2022-09-01T19:24:52.246Z,1.20
2022-09-01T19:27:29.230Z,1.23
2022-09-01T19:30:04.161Z,1.85
2022-09-01T19:32:36.285Z,1.20
2022-09-01T19:35:11.279Z,1.13
2022-09-01T19:37:40.891Z,1.30
2022-09-01T19:40:11.600Z,1.27
2022-09-01T19:42:46.387Z,1.38
2022-09-01T19:45:24.098Z,1.20
2022-09-01T19:47:58.103Z,1.10
2022-09-01T19:50:32.212Z,1.52
2022-09-01T19:53:04.962Z,1.67
2022-09-01T19:55:43.511Z,1.58
2022-09-01T19:58:18.072Z,1.05
2022-09-01T20:00:52.711Z,1.10
2022-09-01T20:03:27.358Z,1.20
2022-09-01T20:05:58.723Z,1.83
2022-09-01T20:08:34.851Z,1.42
2022-09-01T20:11:09.290Z,0.98
2022-09-01T20:14:05.041Z,1.10
2022-09-01T20:16:38.841Z,1.17
2022-09-01T20:19:11.958Z,0.95
2022-09-01T20:21:44.731Z,1.20
2022-09-01T20:24:30.422Z,1.38
2022-09-01T20:27:03.821Z,1.40
2022-09-01T20:29:46.709Z,1.23
2022-09-01T20:32:27.799Z,1.15
2022-09-01T20:35:00.163Z,1.38
2022-09-01T20:37:34.759Z,1.23
2022-09-01T20:40:08.107Z,1.17
2022-09-01T20:42:47.529Z,1.10
2022-09-01T20:45:20.044Z,1.23
2022-09-01T20:47:52.814Z,1.20
2022-09-01T20:50:24.742Z,0.82
2022-09-01T20:53:08.167Z,1.02
2022-09-01T20:55:41.448Z,0.90
2022-09-01T20:58:17.143Z,1.00
2022-09-01T21:00:52.369Z,1.00
2022-09-01T21:03:33.683Z,1.40
2022-09-01T21:06:09.644Z,1.42
2022-09-01T21:08:47.320Z,0.80
2022-09-01T21:11:26.492Z,0.95
2022-09-01T21:14:06.898Z,1.02
2022-09-01T21:16:45.587Z,0.93
2022-09-01T21:19:20.139Z,1.17
2022-09-01T21:21:57.933Z,1.00
2022-09-01T21:24:26.717Z,1.02
2022-09-01T21:26:57.042Z,1.20
2022-09-01T21:29:46.957Z,0.90
2022-09-01T21:32:17.256Z,0.73
2022-09-01T21:34:46.302Z,1.00
2022-09-01T21:37:15.417Z,1.02
2022-09-01T21:39:43.756Z,1.30
2022-09-01T21:42:13.572Z,1.10
2022-09-01T21:44:44.718Z,1.10
2022-09-01T21:47:16.616Z,1.00
2022-09-01T21:49:46.614Z,1.35
2022-09-01T21:52:15.088Z,1.00
2022-09-01T21:54:43.684Z,0.50
2022-09-01T21:57:12.025Z,1.80
2022-09-01T21:59:40.335Z,1.00
2022-09-01T22:02:09.022Z,0.98
2022-09-01T22:04:39.170Z,1.40
2022-09-01T22:07:18.711Z,1.10
2022-09-01T22:09:47.974Z,0.73
2022-09-01T22:12:16.378Z,1.35
2022-09-01T22:14:44.667Z,1.08
2022-09-01T22:17:13.059Z,1.00
2022-09-01T22:19:41.508Z,0.80
2022-09-01T22:22:15.181Z,1.10
2022-09-01T22:24:43.576Z,1.05
2022-09-01T22:27:11.899Z,1.30
2022-09-01T22:29:40.325Z,0.95
2022-09-01T22:32:08.874Z,0.90
2022-09-01T22:34:37.317Z,1.10
2022-09-01T22:37:06.331Z,1.10
2022-09-01T22:39:36.251Z,1.10
2022-09-01T22:42:04.939Z,1.02
2022-09-01T22:44:33.481Z,0.98
2022-09-01T22:47:01.846Z,1.30
2022-09-01T22:49:30.203Z,0.98
2022-09-01T22:51:58.523Z,0.98
2022-09-01T22:54:26.794Z,0.80
2022-09-01T22:56:59.472Z,0.98
2022-09-01T22:59:28.071Z,0.95
2022-09-01T23:01:56.498Z,1.45
2022-09-01T23:04:25.232Z,1.00
2022-09-01T23:06:55.240Z,0.95
2022-09-01T23:09:23.515Z,0.82
2022-09-01T23:11:52.032Z,1.05
2022-09-01T23:14:21.826Z,0.82
2022-09-01T23:16:52.010Z,1.20
2022-09-01T23:19:21.276Z,1.00
2022-09-01T23:21:49.739Z,1.27
2022-09-01T23:24:19.787Z,1.02
2022-09-01T23:26:48.683Z,1.08
2022-09-01T23:29:17.449Z,1.00
2022-09-01T23:31:47.309Z,1.23
2022-09-01T23:34:17.062Z,1.02
2022-09-01T23:36:45.550Z,1.08
2022-09-01T23:39:13.989Z,1.08
2022-09-01T23:41:42.342Z,1.20
2022-09-01T23:44:12.486Z,1.05
2022-09-01T23:46:43.989Z,1.10
2022-09-01T23:49:16.390Z,0.98
2022-09-01T23:51:45.192Z,0.95
2022-09-01T23:54:16.354Z,1.10
2022-09-01T23:56:44.527Z,1.00
2022-09-01T23:59:13.296Z,1.00
